Time;durP1;ratioP1;P1;durP2;ratioP2;P2;SDS_P1;SDS_P2;PMS_P1;PMS_P2;Temp;Humidity;BMP_temperature;BMP_pressure;BME280_temperature;BME280_humidity;BME280_pressure;Samples;Min_cycle;Max_cycle;Signal;HPM_P1;HPM_P2
2023/02/11 00:00:04;;;;;;;7.83;5.43;;;;;;;;;;4988871;28;20062;-64
2023/02/11 00:02:30;;;;;;;6.25;4.55;;;;;;;;;;5003232;28;20262;-61
2023/02/11 00:04:55;;;;;;;8.00;5.25;;;;;;;;;;4988828;28;20499;-62
2023/02/11 00:07:20;;;;;;;7.23;5.60;;;;;;;;;;4996409;28;20064;-60
2023/02/11 00:09:46;;;;;;;6.85;5.25;;;;;;;;;;4988963;28;20385;-61
2023/02/11 00:12:11;;;;;;;7.50;5.00;;;;;;;;;;4990005;28;20030;-63
2023/02/11 00:14:36;;;;;;;6.65;5.05;;;;;;;;;;4990261;28;20285;-62
2023/02/11 00:17:01;;;;;;;7.10;5.30;;;;;;;;;;4987679;28;20957;-63
2023/02/11 00:19:27;;;;;;;7.10;5.33;;;;;;;;;;4989015;28;20291;-63
2023/02/11 00:21:52;;;;;;;6.47;4.80;;;;;;;;;;4990434;28;20038;-63
2023/02/11 00:24:17;;;;;;;7.63;5.27;;;;;;;;;;4990001;28;20636;-57
2023/02/11 00:26:43;;;;;;;7.60;5.57;;;;;;;;;;4989312;28;20273;-61
2023/02/11 00:29:08;;;;;;;6.43;4.80;;;;;;;;;;4986132;28;20667;-60
2023/02/11 00:31:34;;;;;;;6.73;5.10;;;;;;;;;;4986127;28;20034;-62
2023/02/11 00:33:59;;;;;;;8.10;5.57;;;;;;;;;;4989537;28;20713;-62
2023/02/11 00:36:25;;;;;;;7.30;5.30;;;;;;;;;;5004100;28;20682;-59
2023/02/11 00:38:51;;;;;;;6.85;5.20;;;;;;;;;;4984594;28;20046;-59
2023/02/11 00:41:16;;;;;;;7.03;5.28;;;;;;;;;;4987043;28;20042;-61
2023/02/11 00:43:41;;;;;;;7.53;5.43;;;;;;;;;;4987800;28;20061;-62
2023/02/11 00:46:07;;;;;;;6.43;5.07;;;;;;;;;;4989121;28;20109;-62
2023/02/11 00:48:32;;;;;;;7.97;5.35;;;;;;;;;;4989053;28;20845;-60
2023/02/11 00:50:57;;;;;;;6.82;5.03;;;;;;;;;;4989806;28;20062;-62
2023/02/11 00:53:23;;;;;;;6.93;5.00;;;;;;;;;;5002786;28;20404;-63
2023/02/11 00:55:48;;;;;;;6.82;4.90;;;;;;;;;;4985789;28;20394;-63
2023/02/11 00:58:13;;;;;;;7.25;5.47;;;;;;;;;;4988577;28;20507;-58
2023/02/11 01:00:38;;;;;;;7.63;5.03;;;;;;;;;;4989922;28;20033;-62
2023/02/11 01:03:04;;;;;;;7.63;5.55;;;;;;;;;;5004653;28;20282;-61
2023/02/11 01:05:29;;;;;;;6.60;4.93;;;;;;;;;;4988192;28;20033;-62
2023/02/11 01:07:54;;;;;;;6.87;5.37;;;;;;;;;;4982326;28;20066;-61
2023/02/11 01:10:19;;;;;;;6.50;5.07;;;;;;;;;;4987112;28;20691;-59
2023/02/11 01:12:44;;;;;;;6.83;5.20;;;;;;;;;;4987743;28;20408;-63
2023/02/11 01:15:10;;;;;;;7.33;5.20;;;;;;;;;;4990310;28;20312;-61
2023/02/11 01:17:36;;;;;;;7.22;5.32;;;;;;;;;;4988285;28;20340;-60
2023/02/11 01:20:05;;;;;;;6.38;4.82;;;;;;;;;;4988905;28;20097;-61
2023/02/11 01:22:30;;;;;;;6.82;5.00;;;;;;;;;;4988344;28;20034;-57
2023/02/11 01:24:55;;;;;;;7.15;5.07;;;;;;;;;;4986554;28;20478;-59
2023/02/11 01:27:21;;;;;;;6.23;4.60;;;;;;;;;;4993081;28;20050;-62
2023/02/11 01:29:46;;;;;;;7.30;5.30;;;;;;;;;;4986488;28;20120;-62
2023/02/11 01:32:11;;;;;;;6.37;5.27;;;;;;;;;;4986343;28;20895;-64
2023/02/11 01:34:36;;;;;;;6.63;4.93;;;;;;;;;;4986767;28;20284;-61
2023/02/11 01:37:01;;;;;;;6.90;5.20;;;;;;;;;;4995842;28;20285;-61
2023/02/11 01:39:27;;;;;;;7.20;5.07;;;;;;;;;;4990737;28;20034;-63
2023/02/11 01:41:52;;;;;;;6.55;5.07;;;;;;;;;;4986849;28;20388;-56
2023/02/11 01:44:44;;;;;;;7.40;5.20;;;;;;;;;;4969767;28;20034;-63
2023/02/11 01:47:09;;;;;;;7.03;5.00;;;;;;;;;;4985245;28;20124;-59
2023/02/11 01:49:35;;;;;;;7.13;5.20;;;;;;;;;;4999572;28;20162;-57
2023/02/11 01:52:03;;;;;;;6.93;5.00;;;;;;;;;;4985485;28;20293;-60
2023/02/11 01:57:20;;;;;;;6.50;4.75;;;;;;;;;;4985824;28;20045;-62
2023/02/11 01:59:49;;;;;;;6.20;4.50;;;;;;;;;;4989668;28;20463;-59
2023/02/11 02:02:15;;;;;;;6.72;5.05;;;;;;;;;;4987288;28;20030;-60
2023/02/11 02:04:42;;;;;;;6.25;4.53;;;;;;;;;;4990637;28;20042;-61
2023/02/11 02:07:10;;;;;;;6.47;5.03;;;;;;;;;;4986260;28;20125;-64
2023/02/11 02:09:42;;;;;;;7.38;5.00;;;;;;;;;;4987304;28;20070;-60
2023/02/11 02:12:07;;;;;;;6.95;4.95;;;;;;;;;;4985374;28;20533;-60
2023/02/11 02:14:32;;;;;;;7.17;4.83;;;;;;;;;;4999521;28;20042;-58
2023/02/11 02:16:57;;;;;;;6.68;5.22;;;;;;;;;;4985850;28;20836;-62
2023/02/11 02:19:26;;;;;;;6.80;4.90;;;;;;;;;;4977199;28;20042;-61
2023/02/11 02:22:12;;;;;;;6.30;4.78;;;;;;;;;;4975169;28;20301;-61
2023/02/11 02:24:47;;;;;;;7.15;4.70;;;;;;;;;;4987042;28;20034;-62
2023/02/11 02:27:27;;;;;;;6.63;4.95;;;;;;;;;;4987341;28;20042;-56
2023/02/11 02:29:53;;;;;;;6.80;4.93;;;;;;;;;;4986308;28;20507;-61
2023/02/11 02:32:36;;;;;;;7.17;5.17;;;;;;;;;;4977273;28;20027;-61
2023/02/11 02:35:21;;;;;;;7.00;5.13;;;;;;;;;;4975859;28;20535;-61
2023/02/11 02:37:50;;;;;;;7.93;5.47;;;;;;;;;;4986501;28;20411;-64
2023/02/11 02:40:16;;;;;;;6.35;5.28;;;;;;;;;;4977725;28;20038;-62
2023/02/11 02:42:41;;;;;;;7.05;4.90;;;;;;;;;;4996995;28;20031;-63
2023/02/11 02:45:07;;;;;;;7.23;5.30;;;;;;;;;;4985983;28;20029;-61
2023/02/11 02:47:32;;;;;;;6.95;4.82;;;;;;;;;;4985161;28;20042;-62
2023/02/11 02:49:57;;;;;;;6.80;4.83;;;;;;;;;;4988864;28;20049;-62
2023/02/11 02:52:22;;;;;;;7.00;5.03;;;;;;;;;;4986426;28;20289;-60
2023/02/11 02:54:47;;;;;;;6.47;5.00;;;;;;;;;;4985106;28;20145;-63
2023/02/11 02:57:23;;;;;;;6.50;4.97;;;;;;;;;;4985472;28;20277;-61
2023/02/11 02:59:54;;;;;;;6.43;5.15;;;;;;;;;;4968704;28;20286;-62
2023/02/11 03:02:28;;;;;;;5.63;4.50;;;;;;;;;;4986559;28;20050;-59
2023/02/11 03:04:58;;;;;;;7.15;5.18;;;;;;;;;;4987519;28;20034;-59
2023/02/11 03:07:49;;;;;;;7.30;4.72;;;;;;;;;;4983636;28;20060;-62
2023/02/11 03:10:25;;;;;;;7.05;5.13;;;;;;;;;;4981938;28;20578;-62
2023/02/11 03:12:50;;;;;;;6.43;4.72;;;;;;;;;;4984505;28;20510;-62
2023/02/11 03:15:16;;;;;;;6.37;4.60;;;;;;;;;;4984879;28;20022;-62
2023/02/11 03:17:41;;;;;;;7.35;5.43;;;;;;;;;;4996076;28;20638;-60
2023/02/11 03:20:08;;;;;;;6.32;4.57;;;;;;;;;;4985235;28;20046;-61
2023/02/11 03:22:36;;;;;;;6.45;4.88;;;;;;;;;;4985822;28;20054;-58
2023/02/11 03:25:01;;;;;;;6.20;4.68;;;;;;;;;;4984262;28;20018;-63
2023/02/11 03:27:44;;;;;;;7.05;4.90;;;;;;;;;;4985024;28;20030;-60
2023/02/11 03:30:10;;;;;;;6.65;4.88;;;;;;;;;;4987706;28;20138;-57
2023/02/11 03:32:36;;;;;;;6.90;4.90;;;;;;;;;;4990318;28;20121;-61
2023/02/11 03:35:12;;;;;;;6.72;4.93;;;;;;;;;;4990097;28;20023;-62
2023/02/11 03:37:56;;;;;;;6.97;5.07;;;;;;;;;;5005048;28;20034;-63
2023/02/11 03:40:31;;;;;;;6.53;4.90;;;;;;;;;;4989260;28;20026;-60
2023/02/11 03:43:01;;;;;;;5.78;4.53;;;;;;;;;;4989395;28;20113;-59
2023/02/11 03:45:26;;;;;;;6.93;4.68;;;;;;;;;;4994505;28;20114;-60
2023/02/11 03:47:54;;;;;;;6.70;5.03;;;;;;;;;;4990488;28;20129;-58
2023/02/11 03:50:19;;;;;;;6.63;5.03;;;;;;;;;;4987873;28;20273;-59
2023/02/11 03:52:45;;;;;;;7.35;4.75;;;;;;;;;;4988351;28;20041;-59
2023/02/11 03:55:11;;;;;;;6.83;4.80;;;;;;;;;;4990675;28;20099;-59
2023/02/11 03:57:36;;;;;;;7.20;4.82;;;;;;;;;;4993108;28;20285;-63
2023/02/11 04:00:01;;;;;;;5.88;4.53;;;;;;;;;;4985735;28;20037;-63
2023/02/11 04:02:30;;;;;;;5.85;4.20;;;;;;;;;;4988350;28;20049;-64
2023/02/11 04:04:56;;;;;;;6.55;4.63;;;;;;;;;;4988056;28;20042;-61
2023/02/11 04:07:21;;;;;;;7.10;5.35;;;;;;;;;;4990584;28;20069;-63
2023/02/11 04:09:46;;;;;;;5.93;4.67;;;;;;;;;;4989204;28;20061;-64
2023/02/11 04:12:11;;;;;;;8.60;5.27;;;;;;;;;;4994590;28;20280;-64
2023/02/11 04:14:37;;;;;;;5.65;4.78;;;;;;;;;;4997833;28;20308;-64
2023/02/11 04:17:02;;;;;;;6.38;5.03;;;;;;;;;;4991126;28;20423;-63
2023/02/11 04:19:27;;;;;;;6.93;4.35;;;;;;;;;;4993727;28;20069;-59
2023/02/11 04:21:52;;;;;;;5.80;4.53;;;;;;;;;;4989393;28;20045;-61
2023/02/11 04:24:18;;;;;;;6.00;4.53;;;;;;;;;;4989306;28;20792;-61
2023/02/11 04:26:43;;;;;;;5.63;4.33;;;;;;;;;;4988787;28;20490;-62
2023/02/11 04:29:08;;;;;;;5.63;4.30;;;;;;;;;;4987710;28;20751;-62
2023/02/11 04:31:33;;;;;;;6.00;4.70;;;;;;;;;;4986769;28;20753;-63
2023/02/11 04:33:58;;;;;;;6.80;4.97;;;;;;;;;;4987484;28;20295;-61
2023/02/11 04:36:24;;;;;;;5.87;4.43;;;;;;;;;;4989309;28;20285;-63
2023/02/11 04:38:49;;;;;;;5.60;4.65;;;;;;;;;;4989313;28;20430;-61
2023/02/11 04:41:14;;;;;;;7.13;5.10;;;;;;;;;;4986252;28;20030;-61
2023/02/11 04:43:40;;;;;;;5.73;4.73;;;;;;;;;;4987681;28;20297;-61
2023/02/11 04:46:05;;;;;;;6.55;4.97;;;;;;;;;;4992613;28;20828;-58
2023/02/11 04:48:30;;;;;;;5.90;4.60;;;;;;;;;;4991006;28;20525;-61
2023/02/11 04:50:55;;;;;;;6.22;4.75;;;;;;;;;;4991822;28;20608;-59
2023/02/11 04:53:21;;;;;;;5.37;4.30;;;;;;;;;;4992331;28;20400;-61
2023/02/11 04:55:49;;;;;;;5.93;4.72;;;;;;;;;;4991540;28;20796;-63
2023/02/11 04:58:14;;;;;;;6.32;4.38;;;;;;;;;;4988679;28;20145;-60
2023/02/11 05:00:40;;;;;;;5.38;4.43;;;;;;;;;;4988521;28;20539;-59
2023/02/11 05:03:05;;;;;;;5.90;4.40;;;;;;;;;;4990790;28;20510;-60
2023/02/11 05:05:30;;;;;;;6.40;4.80;;;;;;;;;;4986471;28;20622;-59
2023/02/11 05:07:55;;;;;;;5.83;4.70;;;;;;;;;;4987686;28;20450;-62
2023/02/11 05:10:21;;;;;;;6.25;4.82;;;;;;;;;;4987314;28;20282;-62
2023/02/11 05:12:46;;;;;;;6.60;4.90;;;;;;;;;;4998788;28;20062;-63
2023/02/11 05:15:12;;;;;;;6.05;4.90;;;;;;;;;;4988234;28;20292;-63
2023/02/11 05:17:37;;;;;;;6.43;5.40;;;;;;;;;;4987537;28;20041;-62
2023/02/11 05:20:02;;;;;;;6.50;5.17;;;;;;;;;;4986382;28;20922;-62
2023/02/11 05:22:27;;;;;;;6.13;4.80;;;;;;;;;;4982560;28;20901;-56
2023/02/11 05:24:53;;;;;;;5.73;4.40;;;;;;;;;;4988203;28;20096;-62
2023/02/11 05:27:18;;;;;;;6.47;4.57;;;;;;;;;;4983558;28;20240;-64
2023/02/11 05:29:43;;;;;;;6.60;4.90;;;;;;;;;;4987791;28;20081;-65
2023/02/11 05:32:08;;;;;;;7.17;5.07;;;;;;;;;;4992364;28;20479;-68
2023/02/11 05:34:34;;;;;;;6.20;4.30;;;;;;;;;;4991840;28;20354;-66
2023/02/11 05:36:59;;;;;;;6.22;4.80;;;;;;;;;;4987358;28;20500;-60
2023/02/11 05:39:25;;;;;;;6.20;4.33;;;;;;;;;;4983672;28;20057;-63
2023/02/11 05:41:50;;;;;;;5.90;4.53;;;;;;;;;;4988311;28;20292;-59
2023/02/11 05:44:15;;;;;;;5.73;4.57;;;;;;;;;;4986294;28;20228;-65
2023/02/11 05:46:40;;;;;;;6.33;4.53;;;;;;;;;;4986925;28;21085;-60
2023/02/11 05:49:06;;;;;;;6.28;4.50;;;;;;;;;;4990618;28;20309;-59
2023/02/11 05:51:31;;;;;;;6.87;4.30;;;;;;;;;;4992059;28;20126;-65
2023/02/11 05:53:56;;;;;;;5.80;4.60;;;;;;;;;;4993565;28;20292;-66
2023/02/11 05:56:21;;;;;;;6.07;4.50;;;;;;;;;;4992130;28;20285;-65
2023/02/11 05:58:47;;;;;;;5.83;4.60;;;;;;;;;;4989031;28;20379;-58
2023/02/11 06:01:12;;;;;;;6.47;4.77;;;;;;;;;;4989189;28;20456;-60
2023/02/11 06:03:37;;;;;;;6.18;5.00;;;;;;;;;;4994703;28;20813;-64
2023/02/11 06:06:03;;;;;;;6.22;4.75;;;;;;;;;;4991786;28;20050;-60
2023/02/11 06:08:28;;;;;;;5.50;4.35;;;;;;;;;;4996799;28;20050;-61
2023/02/11 06:10:53;;;;;;;6.10;4.70;;;;;;;;;;4994852;28;20039;-64
2023/02/11 06:13:18;;;;;;;5.20;4.33;;;;;;;;;;4968275;28;20270;-69
2023/02/11 06:15:44;;;;;;;6.00;4.90;;;;;;;;;;4985716;28;20140;-67
2023/02/11 06:18:09;;;;;;;6.07;4.32;;;;;;;;;;4967709;28;20321;-63
2023/02/11 06:20:34;;;;;;;5.82;4.55;;;;;;;;;;4974711;28;20578;-69
2023/02/11 06:23:00;;;;;;;6.10;4.50;;;;;;;;;;5000955;28;20043;-63
2023/02/11 06:25:25;;;;;;;6.00;4.30;;;;;;;;;;4987117;28;20035;-63
2023/02/11 06:27:50;;;;;;;6.53;4.53;;;;;;;;;;4986153;28;20406;-68
2023/02/11 06:30:15;;;;;;;7.07;4.85;;;;;;;;;;4972884;28;20278;-68
2023/02/11 06:32:41;;;;;;;6.40;4.80;;;;;;;;;;4985647;28;20478;-63
2023/02/11 06:35:06;;;;;;;6.13;4.80;;;;;;;;;;4975265;28;20496;-64
2023/02/11 06:37:32;;;;;;;6.15;4.72;;;;;;;;;;4979101;28;20580;-64
2023/02/11 06:39:57;;;;;;;6.00;4.68;;;;;;;;;;4984621;28;20058;-66
2023/02/11 06:42:23;;;;;;;6.83;4.93;;;;;;;;;;4982761;28;20475;-63
2023/02/11 06:44:48;;;;;;;6.93;4.93;;;;;;;;;;4981795;28;20783;-67
2023/02/11 06:47:13;;;;;;;7.47;5.65;;;;;;;;;;4985376;28;20301;-69
2023/02/11 06:49:38;;;;;;;6.27;4.70;;;;;;;;;;4986378;28;20169;-60
2023/02/11 06:52:04;;;;;;;7.33;5.40;;;;;;;;;;4986709;28;20635;-58
2023/02/11 06:54:29;;;;;;;6.43;4.97;;;;;;;;;;5001282;28;20316;-59
2023/02/11 06:56:54;;;;;;;6.07;4.93;;;;;;;;;;4984032;28;20434;-62
2023/02/11 06:59:19;;;;;;;6.28;4.88;;;;;;;;;;4978364;28;20297;-59
2023/02/11 07:01:45;;;;;;;7.23;5.03;;;;;;;;;;4983808;28;20423;-61
2023/02/11 07:04:10;;;;;;;6.47;4.97;;;;;;;;;;4982665;28;21007;-63
2023/02/11 07:06:36;;;;;;;7.00;5.40;;;;;;;;;;4983075;28;20097;-61
2023/02/11 07:09:01;;;;;;;7.15;4.85;;;;;;;;;;4984056;28;20544;-63
2023/02/11 07:11:27;;;;;;;7.63;5.65;;;;;;;;;;4964525;28;20042;-65
2023/02/11 07:13:53;;;;;;;6.88;5.28;;;;;;;;;;4982398;28;20133;-67
2023/02/11 07:16:18;;;;;;;7.15;5.43;;;;;;;;;;4984953;28;20045;-66
2023/02/11 07:18:44;;;;;;;6.70;5.07;;;;;;;;;;4966280;28;20030;-64
2023/02/11 07:21:10;;;;;;;6.18;5.15;;;;;;;;;;4982342;28;20032;-68
2023/02/11 07:23:35;;;;;;;6.97;5.40;;;;;;;;;;4991818;28;20022;-64
2023/02/11 07:26:04;;;;;;;7.07;5.68;;;;;;;;;;4986701;28;20487;-67
2023/02/11 07:28:29;;;;;;;6.80;5.30;;;;;;;;;;4985462;28;20082;-58
2023/02/11 07:30:54;;;;;;;6.57;5.38;;;;;;;;;;4984711;28;20055;-67
2023/02/11 07:33:20;;;;;;;7.13;5.55;;;;;;;;;;4993179;28;20035;-65
2023/02/11 07:35:45;;;;;;;6.65;5.07;;;;;;;;;;4982043;28;20462;-63
2023/02/11 07:38:10;;;;;;;7.17;5.70;;;;;;;;;;4981316;28;20061;-65
2023/02/11 07:40:35;;;;;;;6.50;5.30;;;;;;;;;;4982382;28;20304;-68
2023/02/11 07:43:01;;;;;;;7.28;5.32;;;;;;;;;;4984472;28;20454;-69
2023/02/11 07:45:27;;;;;;;7.30;5.50;;;;;;;;;;4983243;28;20035;-60
2023/02/11 07:47:52;;;;;;;8.87;5.57;;;;;;;;;;4980899;28;20128;-65
2023/02/11 07:50:17;;;;;;;7.33;5.30;;;;;;;;;;4984087;28;20277;-64
2023/02/11 07:52:42;;;;;;;6.37;5.50;;;;;;;;;;4983180;28;20662;-67
2023/02/11 07:55:08;;;;;;;8.10;6.03;;;;;;;;;;4984235;28;20350;-67
2023/02/11 07:57:34;;;;;;;8.30;6.07;;;;;;;;;;4979855;28;20297;-69
2023/02/11 07:59:59;;;;;;;7.55;5.93;;;;;;;;;;4984602;28;20035;-64
2023/02/11 08:02:24;;;;;;;7.40;5.68;;;;;;;;;;4983075;28;20061;-68
2023/02/11 08:04:50;;;;;;;7.38;5.40;;;;;;;;;;4980994;28;20341;-62
2023/02/11 08:07:15;;;;;;;7.05;5.80;;;;;;;;;;4978136;28;20081;-61
2023/02/11 08:09:41;;;;;;;9.20;5.50;;;;;;;;;;4966793;28;20053;-63
2023/02/11 08:12:06;;;;;;;7.47;5.63;;;;;;;;;;4988904;28;20050;-65
2023/02/11 08:14:31;;;;;;;8.15;5.70;;;;;;;;;;4987203;28;21000;-65
2023/02/11 08:16:56;;;;;;;8.20;5.90;;;;;;;;;;4990592;28;20616;-58
2023/02/11 08:19:22;;;;;;;7.45;5.65;;;;;;;;;;4980080;28;20038;-65
2023/02/11 08:21:47;;;;;;;6.80;5.23;;;;;;;;;;4989985;28;20034;-68
2023/02/11 08:24:12;;;;;;;9.00;5.37;;;;;;;;;;4980380;28;20348;-63
2023/02/11 08:26:37;;;;;;;7.40;5.67;;;;;;;;;;4987727;28;20280;-65
2023/02/11 08:29:04;;;;;;;7.43;5.83;;;;;;;;;;4999519;28;20289;-64
2023/02/11 08:31:32;;;;;;;7.15;5.40;;;;;;;;;;4982719;28;20293;-63
2023/02/11 08:33:57;;;;;;;7.57;5.50;;;;;;;;;;4969260;28;20042;-62
2023/02/11 08:36:23;;;;;;;7.68;5.63;;;;;;;;;;4983656;28;20050;-65
2023/02/11 08:38:48;;;;;;;7.95;6.20;;;;;;;;;;4983274;28;20054;-65
2023/02/11 08:41:14;;;;;;;6.85;5.70;;;;;;;;;;4983998;28;20309;-66
2023/02/11 08:43:42;;;;;;;8.25;5.95;;;;;;;;;;4984382;28;20127;-65
2023/02/11 08:46:07;;;;;;;8.50;5.80;;;;;;;;;;4985520;28;20030;-65
2023/02/11 08:48:33;;;;;;;7.32;5.90;;;;;;;;;;4968326;28;20417;-64
2023/02/11 08:50:58;;;;;;;7.63;5.95;;;;;;;;;;4986079;28;20430;-66
2023/02/11 08:53:23;;;;;;;7.32;5.53;;;;;;;;;;4985848;28;20035;-66
2023/02/11 08:55:52;;;;;;;7.47;5.70;;;;;;;;;;4969029;28;20806;-66
2023/02/11 08:58:17;;;;;;;8.07;6.10;;;;;;;;;;4985629;28;20065;-65
2023/02/11 09:00:44;;;;;;;7.30;5.53;;;;;;;;;;4968493;28;20089;-64
2023/02/11 09:03:09;;;;;;;8.15;6.22;;;;;;;;;;4985398;28;20803;-69
2023/02/11 09:05:39;;;;;;;7.43;5.65;;;;;;;;;;4970151;28;20126;-63
2023/02/11 09:08:04;;;;;;;7.45;5.88;;;;;;;;;;4987238;28;20522;-62
2023/02/11 09:10:29;;;;;;;7.60;6.03;;;;;;;;;;4987885;28;20065;-60
2023/02/11 09:12:54;;;;;;;8.17;5.83;;;;;;;;;;4988021;28;20038;-64
2023/02/11 09:15:20;;;;;;;8.57;5.60;;;;;;;;;;4986962;28;20380;-59
2023/02/11 09:17:45;;;;;;;8.52;5.25;;;;;;;;;;4981600;28;20293;-58
2023/02/11 09:20:10;;;;;;;6.40;5.47;;;;;;;;;;4986890;28;20046;-61
2023/02/11 09:22:36;;;;;;;7.55;6.05;;;;;;;;;;4986529;28;20058;-61
2023/02/11 09:25:01;;;;;;;7.43;5.85;;;;;;;;;;4987559;28;20034;-67
2023/02/11 09:27:27;;;;;;;8.73;6.35;;;;;;;;;;4985451;28;20050;-62
2023/02/11 09:29:52;;;;;;;7.90;5.73;;;;;;;;;;4987865;28;20188;-71
2023/02/11 09:32:17;;;;;;;8.13;6.03;;;;;;;;;;4987364;28;20813;-69
2023/02/11 09:34:42;;;;;;;8.97;5.97;;;;;;;;;;4985588;28;20049;-69
2023/02/11 09:37:07;;;;;;;7.53;5.73;;;;;;;;;;4985728;28;20296;-66
2023/02/11 09:39:33;;;;;;;7.17;5.97;;;;;;;;;;4986841;28;20301;-65
2023/02/11 09:41:58;;;;;;;7.60;5.73;;;;;;;;;;4990585;28;20297;-64
2023/02/11 09:44:27;;;;;;;8.05;5.45;;;;;;;;;;4997879;28;20285;-66
2023/02/11 09:46:56;;;;;;;9.32;6.30;;;;;;;;;;4986025;28;20050;-70
2023/02/11 09:49:25;;;;;;;7.20;5.63;;;;;;;;;;4987387;28;20050;-65
2023/02/11 09:51:52;;;;;;;8.45;6.25;;;;;;;;;;4966812;28;20603;-61
2023/02/11 09:54:28;;;;;;;8.63;6.00;;;;;;;;;;5013129;28;20478;-64
2023/02/11 09:56:53;;;;;;;7.57;5.68;;;;;;;;;;4987073;28;20038;-66
2023/02/11 09:59:19;;;;;;;7.37;5.90;;;;;;;;;;4986935;28;20049;-64
2023/02/11 10:01:44;;;;;;;8.35;6.25;;;;;;;;;;4984696;28;20396;-63
2023/02/11 10:04:17;;;;;;;6.88;5.43;;;;;;;;;;4990449;28;20030;-61
2023/02/11 10:06:42;;;;;;;7.50;6.10;;;;;;;;;;4984930;28;20722;-65
2023/02/11 10:09:27;;;;;;;8.05;6.22;;;;;;;;;;4991545;28;20070;-63
2023/02/11 10:12:22;;;;;;;8.40;6.25;;;;;;;;;;4981092;28;20046;-61
2023/02/11 10:14:59;;;;;;;7.97;5.85;;;;;;;;;;4982051;28;20042;-61
2023/02/11 10:17:34;;;;;;;7.40;5.80;;;;;;;;;;4984484;28;20046;-66
2023/02/11 10:20:05;;;;;;;7.57;6.03;;;;;;;;;;4968978;28;20018;-68
2023/02/11 10:22:48;;;;;;;7.55;6.05;;;;;;;;;;4985477;28;20100;-61
2023/02/11 10:25:19;;;;;;;6.68;5.55;;;;;;;;;;4995661;28;20073;-65
2023/02/11 10:27:44;;;;;;;8.70;6.00;;;;;;;;;;4986381;28;20057;-64
2023/02/11 10:30:28;;;;;;;7.30;5.40;;;;;;;;;;4968129;28;20038;-65
2023/02/11 10:32:56;;;;;;;7.55;5.65;;;;;;;;;;4983066;28;20046;-64
2023/02/11 10:35:21;;;;;;;7.32;5.97;;;;;;;;;;4981558;28;20033;-60
2023/02/11 10:37:47;;;;;;;7.88;6.13;;;;;;;;;;4985766;28;20038;-67
2023/02/11 10:40:13;;;;;;;6.95;5.63;;;;;;;;;;4985253;28;20026;-69
2023/02/11 10:42:38;;;;;;;7.60;5.53;;;;;;;;;;4985722;28;20091;-61
2023/02/11 10:45:05;;;;;;;6.97;5.47;;;;;;;;;;4983868;28;20037;-67
2023/02/11 10:47:31;;;;;;;7.32;5.60;;;;;;;;;;4982525;28;20050;-61
2023/02/11 10:50:02;;;;;;;8.40;6.15;;;;;;;;;;4975226;28;20694;-70
2023/02/11 10:52:29;;;;;;;7.53;5.72;;;;;;;;;;4984041;28;20168;-67
2023/02/11 10:55:00;;;;;;;6.95;5.30;;;;;;;;;;4984685;28;20038;-68
2023/02/11 10:57:49;;;;;;;6.20;5.40;;;;;;;;;;4984235;28;20038;-68
2023/02/11 11:00:17;;;;;;;6.55;5.10;;;;;;;;;;4977109;28;20117;-68
2023/02/11 11:02:43;;;;;;;7.75;5.90;;;;;;;;;;4982651;28;20038;-67
2023/02/11 11:05:15;;;;;;;7.28;6.00;;;;;;;;;;4965001;28;20038;-68
2023/02/11 11:07:41;;;;;;;6.45;5.47;;;;;;;;;;4985048;28;20318;-66
2023/02/11 11:10:07;;;;;;;6.60;5.40;;;;;;;;;;4984216;28;20719;-65
2023/02/11 11:12:44;;;;;;;7.15;5.88;;;;;;;;;;4967804;28;20049;-64
2023/02/11 11:15:10;;;;;;;6.50;5.30;;;;;;;;;;4984956;28;20038;-62
2023/02/11 11:17:35;;;;;;;7.28;5.65;;;;;;;;;;4980985;28;20180;-58
2023/02/11 11:20:19;;;;;;;6.68;5.57;;;;;;;;;;4996290;28;20034;-67
2023/02/11 11:22:45;;;;;;;7.07;5.53;;;;;;;;;;4983825;28;20050;-68
2023/02/11 11:25:23;;;;;;;7.03;5.83;;;;;;;;;;4967858;28;20030;-61
2023/02/11 11:27:49;;;;;;;7.35;5.35;;;;;;;;;;4997801;28;20340;-70
2023/02/11 11:30:15;;;;;;;7.72;5.55;;;;;;;;;;4983347;28;20114;-68
2023/02/11 11:32:40;;;;;;;6.28;5.47;;;;;;;;;;4968606;28;20475;-65
2023/02/11 11:35:08;;;;;;;7.77;5.90;;;;;;;;;;4985322;28;20069;-65
2023/02/11 11:37:34;;;;;;;6.97;5.47;;;;;;;;;;4968100;28;20042;-67
2023/02/11 11:40:09;;;;;;;7.88;5.95;;;;;;;;;;4983115;28;20430;-66
2023/02/11 11:42:35;;;;;;;6.72;5.55;;;;;;;;;;4983497;28;20191;-67
2023/02/11 11:45:03;;;;;;;6.28;5.35;;;;;;;;;;4984807;28;20039;-67
2023/02/11 11:47:32;;;;;;;6.90;5.68;;;;;;;;;;4984478;28;20040;-67
2023/02/11 11:50:09;;;;;;;7.00;5.40;;;;;;;;;;4997595;28;20049;-67
2023/02/11 11:52:38;;;;;;;7.78;6.30;;;;;;;;;;4987153;28;20097;-63
2023/02/11 11:55:23;;;;;;;7.27;5.43;;;;;;;;;;4989855;28;20035;-67
2023/02/11 11:57:49;;;;;;;8.80;6.35;;;;;;;;;;4986916;28;20101;-66
2023/02/11 12:00:26;;;;;;;6.47;5.35;;;;;;;;;;4968886;28;20042;-68
2023/02/11 12:02:59;;;;;;;7.43;5.80;;;;;;;;;;4986628;28;20700;-67
2023/02/11 12:05:25;;;;;;;8.23;6.18;;;;;;;;;;4985813;28;20027;-68
2023/02/11 12:07:51;;;;;;;7.00;5.57;;;;;;;;;;4997292;28;20058;-66
2023/02/11 12:10:22;;;;;;;7.07;5.57;;;;;;;;;;4985404;28;20054;-66
2023/02/11 12:12:52;;;;;;;6.47;5.40;;;;;;;;;;4987992;28;20289;-69
2023/02/11 12:15:26;;;;;;;7.22;5.68;;;;;;;;;;4992784;28;20030;-64
2023/02/11 12:18:10;;;;;;;6.18;5.10;;;;;;;;;;4982524;28;20043;-66
2023/02/11 12:21:11;;;;;;;7.47;5.85;;;;;;;;;;4987200;28;20121;-64
2023/02/11 12:23:46;;;;;;;7.22;5.30;;;;;;;;;;4965747;28;20035;-66
2023/02/11 12:26:16;;;;;;;6.50;5.35;;;;;;;;;;4979434;28;20042;-63
2023/02/11 12:29:00;;;;;;;5.60;4.85;;;;;;;;;;4991062;28;20057;-64
2023/02/11 12:31:25;;;;;;;6.65;5.30;;;;;;;;;;4988780;28;20089;-63
2023/02/11 12:33:55;;;;;;;6.83;5.07;;;;;;;;;;4990272;28;20042;-65
2023/02/11 12:36:31;;;;;;;6.88;5.15;;;;;;;;;;4974143;28;20368;-62
2023/02/11 12:39:01;;;;;;;7.63;5.40;;;;;;;;;;4997424;28;20065;-67
2023/02/11 12:44:20;;;;;;;6.30;5.10;;;;;;;;;;4972047;28;20082;-67
2023/02/11 12:46:49;;;;;;;7.88;5.80;;;;;;;;;;4983362;28;20034;-65
2023/02/11 12:49:15;;;;;;;6.70;5.57;;;;;;;;;;4958595;28;20056;-60
2023/02/11 12:51:43;;;;;;;6.63;5.43;;;;;;;;;;4987617;28;20034;-62
2023/02/11 12:54:27;;;;;;;6.63;5.60;;;;;;;;;;4988002;28;20034;-66
2023/02/11 12:56:52;;;;;;;6.50;5.40;;;;;;;;;;5010867;28;20051;-67
2023/02/11 12:59:20;;;;;;;5.90;4.97;;;;;;;;;;4988303;28;20076;-66
2023/02/11 13:01:45;;;;;;;6.32;5.20;;;;;;;;;;4999661;28;20808;-64
2023/02/11 13:04:20;;;;;;;7.47;5.30;;;;;;;;;;4987989;28;20054;-64
2023/02/11 13:06:50;;;;;;;6.82;5.30;;;;;;;;;;4986529;28;20265;-58
2023/02/11 13:09:17;;;;;;;6.55;5.30;;;;;;;;;;4986385;28;20051;-58
2023/02/11 13:11:43;;;;;;;6.43;5.63;;;;;;;;;;4986296;28;20088;-64
2023/02/11 13:14:14;;;;;;;7.28;5.43;;;;;;;;;;4982307;28;20031;-66
2023/02/11 13:16:42;;;;;;;6.93;5.20;;;;;;;;;;4969721;28;20411;-63
2023/02/11 13:19:17;;;;;;;6.90;5.35;;;;;;;;;;4987483;28;20041;-62
2023/02/11 13:21:48;;;;;;;6.53;5.18;;;;;;;;;;4986778;28;20455;-63
2023/02/11 13:24:19;;;;;;;8.18;5.40;;;;;;;;;;4988438;28;20030;-65
2023/02/11 13:26:50;;;;;;;6.32;5.10;;;;;;;;;;4989688;28;20034;-61
2023/02/11 13:29:31;;;;;;;6.13;4.97;;;;;;;;;;4986251;28;20116;-62
2023/02/11 13:32:09;;;;;;;6.47;5.38;;;;;;;;;;4986812;28;20085;-63
2023/02/11 13:34:41;;;;;;;6.38;5.25;;;;;;;;;;4970235;28;20124;-66
2023/02/11 13:37:26;;;;;;;5.93;5.07;;;;;;;;;;4985333;28;20027;-63
2023/02/11 13:40:01;;;;;;;5.75;5.00;;;;;;;;;;4979995;28;20088;-65
2023/02/11 13:42:26;;;;;;;6.50;5.00;;;;;;;;;;4991192;28;20066;-60
2023/02/11 13:44:51;;;;;;;6.32;5.40;;;;;;;;;;4986940;28;20014;-59
2023/02/11 13:47:28;;;;;;;6.53;5.18;;;;;;;;;;4984267;28;20044;-64
2023/02/11 13:49:53;;;;;;;7.45;5.50;;;;;;;;;;4978111;28;20049;-58
2023/02/11 13:52:21;;;;;;;7.82;5.07;;;;;;;;;;4987359;28;20015;-61
2023/02/11 13:54:48;;;;;;;6.47;5.00;;;;;;;;;;4987735;28;20011;-65
2023/02/11 13:57:19;;;;;;;6.40;4.97;;;;;;;;;;4987706;28;20089;-64
2023/02/11 13:59:46;;;;;;;6.55;5.13;;;;;;;;;;4987202;28;20043;-64
2023/02/11 14:10:58;;;;;;;6.10;4.95;;;;;;;;;;4988109;28;20038;-67
2023/02/11 14:13:30;;;;;;;6.40;5.07;;;;;;;;;;4979843;28;20043;-66
2023/02/11 14:16:06;;;;;;;6.55;4.97;;;;;;;;;;4985932;28;20053;-61
2023/02/11 14:18:43;;;;;;;7.50;5.35;;;;;;;;;;4990651;28;20042;-60
2023/02/11 14:21:19;;;;;;;6.53;5.22;;;;;;;;;;4985190;28;20125;-70
2023/02/11 14:23:44;;;;;;;6.05;5.10;;;;;;;;;;4987197;28;20030;-67
2023/02/11 14:26:18;;;;;;;6.43;5.00;;;;;;;;;;4978626;28;20460;-64
2023/02/11 14:28:45;;;;;;;6.95;5.47;;;;;;;;;;4986368;28;20073;-67
2023/02/11 14:31:16;;;;;;;5.95;4.70;;;;;;;;;;4965072;28;20454;-66
2023/02/11 14:33:41;;;;;;;6.88;5.30;;;;;;;;;;4984190;28;20030;-61
2023/02/11 14:36:17;;;;;;;8.07;5.00;;;;;;;;;;4986790;28;20054;-62
2023/02/11 14:38:46;;;;;;;6.40;5.20;;;;;;;;;;4984179;28;20022;-64
2023/02/11 14:41:17;;;;;;;6.20;5.15;;;;;;;;;;4958834;28;20034;-66
2023/02/11 14:43:45;;;;;;;6.88;5.55;;;;;;;;;;4984077;28;20074;-67
2023/02/11 14:46:11;;;;;;;6.25;5.45;;;;;;;;;;4967000;28;20113;-67
2023/02/11 14:48:36;;;;;;;7.22;5.53;;;;;;;;;;4983606;28;20121;-67
2023/02/11 14:51:17;;;;;;;5.72;4.70;;;;;;;;;;4984202;28;20062;-65
2023/02/11 14:53:43;;;;;;;6.05;4.53;;;;;;;;;;4982207;28;20043;-61
2023/02/11 14:56:18;;;;;;;6.57;5.15;;;;;;;;;;4983699;28;20030;-60
2023/02/11 14:58:47;;;;;;;6.97;5.38;;;;;;;;;;4968101;28;20042;-68
2023/02/11 15:01:32;;;;;;;6.90;4.82;;;;;;;;;;4985953;28;20069;-69